sensor_id;sensor_type;location;lat;lon;timestamp;pressure;altitude;pressure_sealevel;temperature;humidity
40502;BME280;29631;49.168;9.848;2022-12-18T00:01:22;97715.03;;;0.48;64.89
40502;BME280;29631;49.168;9.848;2022-12-18T00:03:49;97676.25;;;0.25;64.83
40502;BME280;29631;49.168;9.848;2022-12-18T00:06:16;97716.44;;;0.52;65.51
40502;BME280;29631;49.168;9.848;2022-12-18T00:08:43;97733.19;;;0.59;64.97
40502;BME280;29631;49.168;9.848;2022-12-18T00:11:16;97713.13;;;0.50;65.43
40502;BME280;29631;49.168;9.848;2022-12-18T00:13:43;97733.19;;;0.59;65.97
40502;BME280;29631;49.168;9.848;2022-12-18T00:16:13;97716.44;;;0.52;65.16
40502;BME280;29631;49.168;9.848;2022-12-18T00:18:40;97702.88;;;0.38;65.43
40502;BME280;29631;49.168;9.848;2022-12-18T00:21:09;97736.25;;;0.53;65.27
40502;BME280;29631;49.168;9.848;2022-12-18T00:23:36;97721.97;;;0.37;66.00
40502;BME280;29631;49.168;9.848;2022-12-18T00:26:09;97709.56;;;0.29;66.04
40502;BME280;29631;49.168;9.848;2022-12-18T00:28:35;97750.28;;;0.51;65.66
40502;BME280;29631;49.168;9.848;2022-12-18T00:31:10;97739.53;;;0.44;65.20
40502;BME280;29631;49.168;9.848;2022-12-18T00:33:37;97742.97;;;0.45;65.83
40502;BME280;29631;49.168;9.848;2022-12-18T00:36:04;97704.16;;;0.21;65.21
40502;BME280;29631;49.168;9.848;2022-12-18T00:38:31;97741.41;;;0.42;65.22
40502;BME280;29631;49.168;9.848;2022-12-18T00:40:57;97727.84;;;0.28;65.99
40502;BME280;29631;49.168;9.848;2022-12-18T00:43:22;97705.91;;;0.21;65.67
40502;BME280;29631;49.168;9.848;2022-12-18T00:45:48;97722.31;;;0.21;64.85
40502;BME280;29631;49.168;9.848;2022-12-18T00:48:14;97760.13;;;0.35;65.20
40502;BME280;29631;49.168;9.848;2022-12-18T00:50:40;97717.81;;;0.23;65.44
40502;BME280;29631;49.168;9.848;2022-12-18T00:53:06;97707.69;;;0.09;65.03
40502;BME280;29631;49.168;9.848;2022-12-18T00:55:32;97638.16;;;-0.29;64.92
40502;BME280;29631;49.168;9.848;2022-12-18T00:57:57;97700.72;;;0.10;65.84
40502;BME280;29631;49.168;9.848;2022-12-18T01:00:23;97747.50;;;0.30;65.40
40502;BME280;29631;49.168;9.848;2022-12-18T01:02:49;97744.25;;;0.28;65.01
40502;BME280;29631;49.168;9.848;2022-12-18T01:05:15;97742.78;;;0.24;65.11
40502;BME280;29631;49.168;9.848;2022-12-18T01:07:41;97748.81;;;0.25;65.76
40502;BME280;29631;49.168;9.848;2022-12-18T01:10:09;97760.97;;;0.35;66.04
40502;BME280;29631;49.168;9.848;2022-12-18T01:12:36;97707.91;;;0.06;65.15
40502;BME280;29631;49.168;9.848;2022-12-18T01:15:03;97739.06;;;0.28;65.92
40502;BME280;29631;49.168;9.848;2022-12-18T01:17:29;97745.66;;;0.32;65.27
40502;BME280;29631;49.168;9.848;2022-12-18T01:19:55;97734.34;;;0.22;65.80
40502;BME280;29631;49.168;9.848;2022-12-18T01:22:21;97739.88;;;0.29;65.29
40502;BME280;29631;49.168;9.848;2022-12-18T01:24:46;97754.34;;;0.31;65.34
40502;BME280;29631;49.168;9.848;2022-12-18T01:27:12;97714.50;;;0.10;66.05
40502;BME280;29631;49.168;9.848;2022-12-18T01:29:38;97739.50;;;0.22;66.43
40502;BME280;29631;49.168;9.848;2022-12-18T01:32:04;97737.63;;;0.24;66.02
40502;BME280;29631;49.168;9.848;2022-12-18T01:34:30;97741.72;;;0.27;65.89
40502;BME280;29631;49.168;9.848;2022-12-18T01:36:56;97771.34;;;0.35;66.39
40502;BME280;29631;49.168;9.848;2022-12-18T01:39:23;97766.16;;;0.35;66.18
40502;BME280;29631;49.168;9.848;2022-12-18T01:41:49;97757.88;;;0.30;65.90
40502;BME280;29631;49.168;9.848;2022-12-18T01:50:32;97776.53;;;0.46;65.91
40502;BME280;29631;49.168;9.848;2022-12-18T01:53:21;97775.81;;;0.44;66.74
40502;BME280;29631;49.168;9.848;2022-12-18T01:55:52;97752.16;;;0.38;66.54
40502;BME280;29631;49.168;9.848;2022-12-18T01:58:27;97733.16;;;0.37;66.57
40502;BME280;29631;49.168;9.848;2022-12-18T02:00:55;97739.78;;;0.41;67.12
40502;BME280;29631;49.168;9.848;2022-12-18T02:03:21;97741.66;;;0.39;67.05
40502;BME280;29631;49.168;9.848;2022-12-18T02:11:28;97753.34;;;0.45;67.26
40502;BME280;29631;49.168;9.848;2022-12-18T02:17:07;97752.75;;;0.41;67.27
40502;BME280;29631;49.168;9.848;2022-12-18T02:20:05;97742.72;;;0.37;66.65
40502;BME280;29631;49.168;9.848;2022-12-18T02:23:15;97762.38;;;0.39;66.76
40502;BME280;29631;49.168;9.848;2022-12-18T02:26:15;97751.28;;;0.26;67.33
40502;BME280;29631;49.168;9.848;2022-12-18T02:29:08;97768.25;;;0.30;66.05
40502;BME280;29631;49.168;9.848;2022-12-18T02:31:41;97769.44;;;0.26;67.23
40502;BME280;29631;49.168;9.848;2022-12-18T02:34:09;97772.16;;;0.25;66.48
40502;BME280;29631;49.168;9.848;2022-12-18T02:36:39;97760.31;;;0.10;66.65
40502;BME280;29631;49.168;9.848;2022-12-18T02:39:10;97784.50;;;0.21;66.69
40502;BME280;29631;49.168;9.848;2022-12-18T02:41:36;97786.38;;;0.19;66.87
40502;BME280;29631;49.168;9.848;2022-12-18T02:44:10;97772.09;;;0.14;67.01
40502;BME280;29631;49.168;9.848;2022-12-18T02:52:07;97768.25;;;0.19;66.41
40502;BME280;29631;49.168;9.848;2022-12-18T03:00:16;97764.22;;;0.15;66.54
40502;BME280;29631;49.168;9.848;2022-12-18T03:02:48;97765.44;;;0.22;66.38
40502;BME280;29631;49.168;9.848;2022-12-18T03:05:30;97774.34;;;0.18;67.06
40502;BME280;29631;49.168;9.848;2022-12-18T03:08:23;97787.56;;;0.15;66.45
40502;BME280;29631;49.168;9.848;2022-12-18T03:11:04;97793.88;;;0.11;66.37
40502;BME280;29631;49.168;9.848;2022-12-18T03:13:40;97775.84;;;-0.01;66.67
40502;BME280;29631;49.168;9.848;2022-12-18T03:16:13;97773.94;;;0.01;66.83
40502;BME280;29631;49.168;9.848;2022-12-18T03:18:52;97787.50;;;0.04;66.44
40502;BME280;29631;49.168;9.848;2022-12-18T03:21:22;97774.31;;;-0.03;66.64
40502;BME280;29631;49.168;9.848;2022-12-18T03:23:51;97770.72;;;-0.13;66.97
40502;BME280;29631;49.168;9.848;2022-12-18T03:26:21;97763.28;;;-0.18;66.36
40502;BME280;29631;49.168;9.848;2022-12-18T03:28:57;97774.38;;;-0.16;66.33
40502;BME280;29631;49.168;9.848;2022-12-18T03:31:28;97759.50;;;-0.25;66.65
40502;BME280;29631;49.168;9.848;2022-12-18T03:33:59;97731.09;;;-0.37;67.22
40502;BME280;29631;49.168;9.848;2022-12-18T03:36:27;97709.34;;;-0.58;66.57
40502;BME280;29631;49.168;9.848;2022-12-18T03:38:53;97736.13;;;-0.47;66.61
40502;BME280;29631;49.168;9.848;2022-12-18T03:41:28;97769.69;;;-0.34;66.55
40502;BME280;29631;49.168;9.848;2022-12-18T03:44:21;97784.41;;;-0.35;67.21
40502;BME280;29631;49.168;9.848;2022-12-18T03:47:13;97790.41;;;-0.34;66.70
40502;BME280;29631;49.168;9.848;2022-12-18T03:49:50;97758.31;;;-0.55;66.78
40502;BME280;29631;49.168;9.848;2022-12-18T03:52:38;97762.94;;;-0.48;67.06
40502;BME280;29631;49.168;9.848;2022-12-18T03:55:08;97778.38;;;-0.35;66.92
40502;BME280;29631;49.168;9.848;2022-12-18T03:57:35;97788.53;;;-0.32;66.27
40502;BME280;29631;49.168;9.848;2022-12-18T04:00:10;97779.34;;;-0.36;66.80
40502;BME280;29631;49.168;9.848;2022-12-18T04:02:43;97783.34;;;-0.32;66.95
40502;BME280;29631;49.168;9.848;2022-12-18T04:05:11;97783.16;;;-0.29;66.47
40502;BME280;29631;49.168;9.848;2022-12-18T04:07:38;97781.50;;;-0.30;66.52
40502;BME280;29631;49.168;9.848;2022-12-18T04:10:07;97779.38;;;-0.25;66.69
40502;BME280;29631;49.168;9.848;2022-12-18T04:12:34;97786.84;;;-0.21;66.76
40502;BME280;29631;49.168;9.848;2022-12-18T04:15:02;97769.69;;;-0.34;66.12
40502;BME280;29631;49.168;9.848;2022-12-18T04:17:28;97771.13;;;-0.30;67.28
40502;BME280;29631;49.168;9.848;2022-12-18T04:19:54;97766.88;;;-0.31;66.42
40502;BME280;29631;49.168;9.848;2022-12-18T04:22:20;97770.84;;;-0.38;66.08
40502;BME280;29631;49.168;9.848;2022-12-18T04:24:46;97770.13;;;-0.40;66.74
40502;BME280;29631;49.168;9.848;2022-12-18T04:27:11;97760.22;;;-0.46;66.85
40502;BME280;29631;49.168;9.848;2022-12-18T04:29:38;97779.34;;;-0.36;66.15
40502;BME280;29631;49.168;9.848;2022-12-18T04:32:03;97681.59;;;-1.03;66.06
40502;BME280;29631;49.168;9.848;2022-12-18T04:34:29;97747.44;;;-0.60;65.95
40502;BME280;29631;49.168;9.848;2022-12-18T04:36:56;97774.09;;;-0.47;66.30
40502;BME280;29631;49.168;9.848;2022-12-18T04:39:21;97775.38;;;-0.53;66.02
40502;BME280;29631;49.168;9.848;2022-12-18T04:41:47;97785.13;;;-0.56;66.77
40502;BME280;29631;49.168;9.848;2022-12-18T04:44:13;97791.00;;;-0.54;66.18
40502;BME280;29631;49.168;9.848;2022-12-18T04:46:39;97774.16;;;-0.60;66.57
40502;BME280;29631;49.168;9.848;2022-12-18T04:49:05;97812.84;;;-0.46;66.77
40502;BME280;29631;49.168;9.848;2022-12-18T04:51:30;97812.31;;;-0.51;66.07
40502;BME280;29631;49.168;9.848;2022-12-18T04:53:56;97814.09;;;-0.51;66.35
40502;BME280;29631;49.168;9.848;2022-12-18T04:56:22;97780.75;;;-0.79;66.70
40502;BME280;29631;49.168;9.848;2022-12-18T04:58:49;97797.78;;;-0.64;66.67
40502;BME280;29631;49.168;9.848;2022-12-18T05:01:17;97782.88;;;-0.73;66.03
40502;BME280;29631;49.168;9.848;2022-12-18T05:03:43;97780.25;;;-0.84;65.88
40502;BME280;29631;49.168;9.848;2022-12-18T05:06:09;97802.09;;;-0.88;65.90
40502;BME280;29631;49.168;9.848;2022-12-18T05:08:35;97807.66;;;-0.81;66.17
40502;BME280;29631;49.168;9.848;2022-12-18T05:11:10;97738.56;;;-1.28;66.51
40502;BME280;29631;49.168;9.848;2022-12-18T05:13:37;97820.22;;;-0.88;66.56
40502;BME280;29631;49.168;9.848;2022-12-18T05:16:04;97792.91;;;-1.04;65.75
40502;BME280;29631;49.168;9.848;2022-12-18T05:18:30;97793.03;;;-1.18;66.25
40502;BME280;29631;49.168;9.848;2022-12-18T05:20:57;97773.28;;;-1.32;66.17
40502;BME280;29631;49.168;9.848;2022-12-18T05:23:24;97786.03;;;-1.29;66.75
40502;BME280;29631;49.168;9.848;2022-12-18T05:25:58;97768.16;;;-1.44;66.17
40502;BME280;29631;49.168;9.848;2022-12-18T05:28:27;97795.84;;;-1.34;66.00
40502;BME280;29631;49.168;9.848;2022-12-18T05:30:57;97776.22;;;-1.48;66.24
40502;BME280;29631;49.168;9.848;2022-12-18T05:33:26;97823.88;;;-1.28;66.63
40502;BME280;29631;49.168;9.848;2022-12-18T05:35:58;97820.44;;;-1.28;66.70
40502;BME280;29631;49.168;9.848;2022-12-18T05:38:29;97837.53;;;-1.26;65.94
40502;BME280;29631;49.168;9.848;2022-12-18T05:40:55;97813.22;;;-1.36;65.92
40502;BME280;29631;49.168;9.848;2022-12-18T05:43:25;97806.91;;;-1.32;66.71
40502;BME280;29631;49.168;9.848;2022-12-18T05:45:51;97814.47;;;-1.29;66.28
40502;BME280;29631;49.168;9.848;2022-12-18T05:48:17;97809.91;;;-1.25;66.19
40502;BME280;29631;49.168;9.848;2022-12-18T05:50:45;97784.78;;;-1.48;66.58
40502;BME280;29631;49.168;9.848;2022-12-18T05:53:12;97808.66;;;-1.32;66.08
40502;BME280;29631;49.168;9.848;2022-12-18T05:55:41;97808.03;;;-1.36;66.37
40502;BME280;29631;49.168;9.848;2022-12-18T05:58:09;97814.25;;;-1.26;66.50
40502;BME280;29631;49.168;9.848;2022-12-18T06:00:37;97815.38;;;-1.30;66.86
40502;BME280;29631;49.168;9.848;2022-12-18T06:03:07;97780.56;;;-1.49;66.44
40502;BME280;29631;49.168;9.848;2022-12-18T06:05:44;97797.50;;;-1.33;66.63
40502;BME280;29631;49.168;9.848;2022-12-18T06:08:12;97824.28;;;-1.34;66.22
40502;BME280;29631;49.168;9.848;2022-12-18T06:10:38;97822.53;;;-1.33;66.92
40502;BME280;29631;49.168;9.848;2022-12-18T06:13:05;97820.84;;;-1.34;67.18
40502;BME280;29631;49.168;9.848;2022-12-18T06:15:32;97787.59;;;-1.51;66.95
40502;BME280;29631;49.168;9.848;2022-12-18T06:18:00;97802.56;;;-1.44;67.41
40502;BME280;29631;49.168;9.848;2022-12-18T06:20:26;97791.09;;;-1.40;66.73
40502;BME280;29631;49.168;9.848;2022-12-18T06:22:51;97786.00;;;-1.41;66.93
40502;BME280;29631;49.168;9.848;2022-12-18T06:25:17;97811.56;;;-1.37;67.11
40502;BME280;29631;49.168;9.848;2022-12-18T06:27:43;97832.44;;;-1.27;67.18
40502;BME280;29631;49.168;9.848;2022-12-18T06:30:10;97819.00;;;-1.32;66.98
40502;BME280;29631;49.168;9.848;2022-12-18T06:32:36;97797.19;;;-1.53;66.83
40502;BME280;29631;49.168;9.848;2022-12-18T06:35:02;97811.13;;;-1.31;67.56
40502;BME280;29631;49.168;9.848;2022-12-18T06:37:27;97780.56;;;-1.49;67.43
40502;BME280;29631;49.168;9.848;2022-12-18T06:39:54;97800.41;;;-1.37;67.56
40502;BME280;29631;49.168;9.848;2022-12-18T06:42:19;97766.28;;;-1.54;67.38
40502;BME280;29631;49.168;9.848;2022-12-18T06:44:45;97838.03;;;-1.21;67.15
40502;BME280;29631;49.168;9.848;2022-12-18T06:47:11;97828.19;;;-1.28;67.55
40502;BME280;29631;49.168;9.848;2022-12-18T06:49:36;97822.09;;;-1.27;67.80
40502;BME280;29631;49.168;9.848;2022-12-18T06:52:02;97777.13;;;-1.49;67.28
40502;BME280;29631;49.168;9.848;2022-12-18T06:54:28;97807.84;;;-1.33;67.95
40502;BME280;29631;49.168;9.848;2022-12-18T06:56:54;97842.38;;;-1.21;68.03
40502;BME280;29631;49.168;9.848;2022-12-18T06:59:21;97817.78;;;-1.27;67.97
40502;BME280;29631;49.168;9.848;2022-12-18T07:01:46;97822.09;;;-1.27;67.49
40502;BME280;29631;49.168;9.848;2022-12-18T07:04:12;97847.22;;;-1.17;67.81
40502;BME280;29631;49.168;9.848;2022-12-18T07:06:38;97817.53;;;-1.24;67.98
40502;BME280;29631;49.168;9.848;2022-12-18T07:09:03;97813.53;;;-1.28;68.49
40502;BME280;29631;49.168;9.848;2022-12-18T07:11:29;97840.94;;;-1.13;68.02
40502;BME280;29631;49.168;9.848;2022-12-18T07:13:58;97824.38;;;-1.23;68.63
40502;BME280;29631;49.168;9.848;2022-12-18T07:16:24;97849.81;;;-1.04;68.20
40502;BME280;29631;49.168;9.848;2022-12-18T07:18:50;97858.91;;;-0.99;68.02
40502;BME280;29631;49.168;9.848;2022-12-18T07:21:19;97838.34;;;-1.13;68.35
40502;BME280;29631;49.168;9.848;2022-12-18T07:23:48;97857.97;;;-0.98;68.70
40502;BME280;29631;49.168;9.848;2022-12-18T07:26:17;97854.06;;;-1.03;68.22
40502;BME280;29631;49.168;9.848;2022-12-18T07:28:43;97808.25;;;-1.26;68.13
40502;BME280;29631;49.168;9.848;2022-12-18T07:31:18;97857.03;;;-0.97;68.61
40502;BME280;29631;49.168;9.848;2022-12-18T07:33:45;97854.69;;;-1.00;68.92
40502;BME280;29631;49.168;9.848;2022-12-18T07:36:11;97881.03;;;-0.82;68.55
40502;BME280;29631;49.168;9.848;2022-12-18T07:38:37;97832.53;;;-1.04;68.45
40502;BME280;29631;49.168;9.848;2022-12-18T07:41:09;97868.50;;;-0.76;68.90
40502;BME280;29631;49.168;9.848;2022-12-18T07:43:35;97872.94;;;-0.78;68.66
40502;BME280;29631;49.168;9.848;2022-12-18T07:46:01;97876.47;;;-0.67;68.80
40502;BME280;29631;49.168;9.848;2022-12-18T07:48:30;97851.50;;;-0.68;68.87
40502;BME280;29631;49.168;9.848;2022-12-18T07:51:05;97853.91;;;-0.65;69.19
40502;BME280;29631;49.168;9.848;2022-12-18T07:53:33;97854.72;;;-0.64;69.04
40502;BME280;29631;49.168;9.848;2022-12-18T07:56:04;97843.34;;;-0.74;68.90
40502;BME280;29631;49.168;9.848;2022-12-18T07:58:30;97877.25;;;-0.54;69.25
40502;BME280;29631;49.168;9.848;2022-12-18T08:01:08;97861.31;;;-0.60;69.68
40502;BME280;29631;49.168;9.848;2022-12-18T08:03:35;97836.59;;;-0.64;69.06
40502;BME280;29631;49.168;9.848;2022-12-18T08:06:03;97823.47;;;-0.73;69.75
40502;BME280;29631;49.168;9.848;2022-12-18T08:08:30;97815.84;;;-0.75;69.42
40502;BME280;29631;49.168;9.848;2022-12-18T08:10:57;97859.03;;;-0.52;69.67
40502;BME280;29631;49.168;9.848;2022-12-18T08:13:24;97881.47;;;-0.40;69.85
40502;BME280;29631;49.168;9.848;2022-12-18T08:16:05;97873.50;;;-0.37;69.31
40502;BME280;29631;49.168;9.848;2022-12-18T08:18:34;97871.59;;;-0.35;69.74
40502;BME280;29631;49.168;9.848;2022-12-18T08:21:32;97820.94;;;-0.63;70.08
40502;BME280;29631;49.168;9.848;2022-12-18T08:24:00;97876.78;;;-0.35;69.48
40502;BME280;29631;49.168;9.848;2022-12-18T08:26:30;97864.78;;;-0.36;68.93
40502;BME280;29631;49.168;9.848;2022-12-18T08:28:58;97795.75;;;-0.72;69.41
40502;BME280;29631;49.168;9.848;2022-12-18T08:31:25;97835.59;;;-0.38;69.28
40502;BME280;29631;49.168;9.848;2022-12-18T08:33:53;97876.72;;;-0.10;69.38
40502;BME280;29631;49.168;9.848;2022-12-18T08:36:20;97884.03;;;-0.04;69.89
40502;BME280;29631;49.168;9.848;2022-12-18T08:38:46;97859.34;;;-0.21;69.51
40502;BME280;29631;49.168;9.848;2022-12-18T08:41:15;97891.59;;;-0.02;69.45
40502;BME280;29631;49.168;9.848;2022-12-18T08:43:41;97800.91;;;-0.48;70.06
40502;BME280;29631;49.168;9.848;2022-12-18T08:46:33;97890.94;;;0.07;70.60
40502;BME280;29631;49.168;9.848;2022-12-18T08:48:59;97870.66;;;0.01;69.91
40502;BME280;29631;49.168;9.848;2022-12-18T08:51:25;97862.56;;;0.06;70.65
40502;BME280;29631;49.168;9.848;2022-12-18T08:53:51;97866.69;;;0.08;69.99
40502;BME280;29631;49.168;9.848;2022-12-18T08:56:17;97872.03;;;0.18;69.77
40502;BME280;29631;49.168;9.848;2022-12-18T08:58:42;97850.06;;;0.11;69.68
40502;BME280;29631;49.168;9.848;2022-12-18T09:01:11;97855.88;;;0.14;70.32
40502;BME280;29631;49.168;9.848;2022-12-18T09:03:38;97849.63;;;0.17;69.92
40502;BME280;29631;49.168;9.848;2022-12-18T09:06:04;97860.34;;;0.23;70.52
40502;BME280;29631;49.168;9.848;2022-12-18T09:08:30;97877.81;;;0.21;70.27
40502;BME280;29631;49.168;9.848;2022-12-18T09:10:56;97893.59;;;0.29;70.29
40502;BME280;29631;49.168;9.848;2022-12-18T09:13:22;97850.22;;;0.20;70.14
40502;BME280;29631;49.168;9.848;2022-12-18T09:15:53;97851.91;;;0.21;71.00
40502;BME280;29631;49.168;9.848;2022-12-18T09:18:21;97846.47;;;0.24;70.58
40502;BME280;29631;49.168;9.848;2022-12-18T09:20:47;97869.41;;;0.41;70.76
40502;BME280;29631;49.168;9.848;2022-12-18T09:23:13;97862.78;;;0.37;71.13
40502;BME280;29631;49.168;9.848;2022-12-18T09:25:40;97864.44;;;0.38;71.10
40502;BME280;29631;49.168;9.848;2022-12-18T09:28:14;97864.97;;;0.54;70.92
40502;BME280;29631;49.168;9.848;2022-12-18T09:30:58;97840.16;;;0.39;70.38
40502;BME280;29631;49.168;9.848;2022-12-18T09:33:24;97814.56;;;0.35;70.50
40502;BME280;29631;49.168;9.848;2022-12-18T09:35:50;97852.94;;;0.53;71.45
40502;BME280;29631;49.168;9.848;2022-12-18T09:38:18;97845.03;;;0.55;71.50
40502;BME280;29631;49.168;9.848;2022-12-18T09:40:51;97803.72;;;0.30;70.48
40502;BME280;29631;49.168;9.848;2022-12-18T09:43:26;97840.22;;;0.61;71.11
40502;BME280;29631;49.168;9.848;2022-12-18T09:46:05;97842.84;;;0.72;71.33
40502;BME280;29631;49.168;9.848;2022-12-18T09:48:36;97842.59;;;0.75;70.93
40502;BME280;29631;49.168;9.848;2022-12-18T09:51:28;97862.53;;;0.85;71.52
40502;BME280;29631;49.168;9.848;2022-12-18T09:54:11;97821.59;;;0.67;71.26
40502;BME280;29631;49.168;9.848;2022-12-18T09:56:41;97862.66;;;0.95;70.52
40502;BME280;29631;49.168;9.848;2022-12-18T09:59:35;97851.69;;;0.91;71.30
40502;BME280;29631;49.168;9.848;2022-12-18T10:02:21;97859.84;;;0.98;71.06
40502;BME280;29631;49.168;9.848;2022-12-18T10:05:02;97856.53;;;0.96;71.06
40502;BME280;29631;49.168;9.848;2022-12-18T10:10:48;97832.47;;;0.94;71.14
40502;BME280;29631;49.168;9.848;2022-12-18T10:13:49;97830.81;;;1.04;72.18
40502;BME280;29631;49.168;9.848;2022-12-18T10:19:31;97855.38;;;1.22;71.06
40502;BME280;29631;49.168;9.848;2022-12-18T10:22:31;97851.09;;;1.21;72.24
40502;BME280;29631;49.168;9.848;2022-12-18T10:27:56;97814.31;;;1.05;71.08
40502;BME280;29631;49.168;9.848;2022-12-18T10:30:25;97834.13;;;1.17;71.91
40502;BME280;29631;49.168;9.848;2022-12-18T10:32:51;97844.28;;;1.31;71.90
40502;BME280;29631;49.168;9.848;2022-12-18T10:35:25;97821.88;;;1.19;71.40
40502;BME280;29631;49.168;9.848;2022-12-18T10:43:19;97845.66;;;1.45;72.05
40502;BME280;29631;49.168;9.848;2022-12-18T10:51:34;97848.94;;;1.58;71.75
40502;BME280;29631;49.168;9.848;2022-12-18T10:54:23;97829.38;;;1.54;71.66
40502;BME280;29631;49.168;9.848;2022-12-18T10:56:49;97843.28;;;1.53;72.03
40502;BME280;29631;49.168;9.848;2022-12-18T10:59:17;97859.56;;;1.66;72.13
40502;BME280;29631;49.168;9.848;2022-12-18T11:01:58;97819.19;;;1.51;72.05
40502;BME280;29631;49.168;9.848;2022-12-18T11:04:28;97841.88;;;1.60;72.26
40502;BME280;29631;49.168;9.848;2022-12-18T11:07:07;97802.13;;;1.38;72.01
40502;BME280;29631;49.168;9.848;2022-12-18T11:09:38;97847.03;;;1.71;72.69
40502;BME280;29631;49.168;9.848;2022-12-18T11:12:15;97841.63;;;1.74;72.27
40502;BME280;29631;49.168;9.848;2022-12-18T11:14:51;97828.25;;;1.68;72.86
40502;BME280;29631;49.168;9.848;2022-12-18T11:17:34;97841.34;;;1.77;72.55
40502;BME280;29631;49.168;9.848;2022-12-18T11:20:07;97846.31;;;1.80;71.95
40502;BME280;29631;49.168;9.848;2022-12-18T11:23:03;97824.47;;;1.83;73.06
40502;BME280;29631;49.168;9.848;2022-12-18T11:25:31;97819.53;;;1.80;71.72
40502;BME280;29631;49.168;9.848;2022-12-18T11:28:05;97817.09;;;1.88;72.54
40502;BME280;29631;49.168;9.848;2022-12-18T11:30:36;97839.41;;;2.01;72.35
40502;BME280;29631;49.168;9.848;2022-12-18T11:33:10;97811.59;;;1.81;72.59
40502;BME280;29631;49.168;9.848;2022-12-18T11:36:00;97828.25;;;2.10;72.42
40502;BME280;29631;49.168;9.848;2022-12-18T11:38:37;97830.81;;;2.21;72.80
40502;BME280;29631;49.168;9.848;2022-12-18T11:41:34;97837.03;;;2.29;73.13
40502;BME280;29631;49.168;9.848;2022-12-18T11:44:50;97826.84;;;2.37;71.89
40502;BME280;29631;49.168;9.848;2022-12-18T11:49:52;97817.31;;;2.47;72.46
40502;BME280;29631;49.168;9.848;2022-12-18T11:52:40;97800.63;;;2.50;73.08
40502;BME280;29631;49.168;9.848;2022-12-18T11:58:30;97815.41;;;2.70;73.11
40502;BME280;29631;49.168;9.848;2022-12-18T12:01:21;97810.63;;;2.75;71.96
40502;BME280;29631;49.168;9.848;2022-12-18T12:09:32;97809.97;;;3.02;71.79
40502;BME280;29631;49.168;9.848;2022-12-18T12:24:31;97778.81;;;3.21;72.41
40502;BME280;29631;49.168;9.848;2022-12-18T12:29:46;97783.91;;;3.32;72.19
40502;BME280;29631;49.168;9.848;2022-12-18T12:35:42;97769.84;;;3.44;73.05
40502;BME280;29631;49.168;9.848;2022-12-18T12:38:16;97787.78;;;3.47;71.71
40502;BME280;29631;49.168;9.848;2022-12-18T12:40:52;97783.13;;;3.51;71.87
40502;BME280;29631;49.168;9.848;2022-12-18T12:43:32;97789.59;;;3.56;73.45
40502;BME280;29631;49.168;9.848;2022-12-18T12:46:11;97787.00;;;3.56;72.61
40502;BME280;29631;49.168;9.848;2022-12-18T12:48:52;97776.13;;;3.51;72.56
40502;BME280;29631;49.168;9.848;2022-12-18T12:51:26;97775.34;;;3.60;72.23
40502;BME280;29631;49.168;9.848;2022-12-18T12:53:56;97737.59;;;3.45;72.71
40502;BME280;29631;49.168;9.848;2022-12-18T12:56:32;97772.59;;;3.71;73.35
40502;BME280;29631;49.168;9.848;2022-12-18T13:04:35;97789.63;;;3.75;72.33
40502;BME280;29631;49.168;9.848;2022-12-18T13:07:19;97774.25;;;3.72;72.41
40502;BME280;29631;49.168;9.848;2022-12-18T13:26:33;97755.44;;;3.59;72.46
40502;BME280;29631;49.168;9.848;2022-12-18T13:34:25;97785.53;;;3.82;72.72
40502;BME280;29631;49.168;9.848;2022-12-18T13:36:57;97762.47;;;3.77;72.73
40502;BME280;29631;49.168;9.848;2022-12-18T13:39:42;97771.53;;;3.83;72.64
40502;BME280;29631;49.168;9.848;2022-12-18T13:47:04;97776.59;;;3.75;72.38
40502;BME280;29631;49.168;9.848;2022-12-18T13:49:42;97752.03;;;3.58;72.69
40502;BME280;29631;49.168;9.848;2022-12-18T13:52:22;97766.56;;;3.61;72.63
40502;BME280;29631;49.168;9.848;2022-12-18T13:54:58;97761.34;;;3.61;73.42
40502;BME280;29631;49.168;9.848;2022-12-18T13:57:31;97765.19;;;3.57;72.67
40502;BME280;29631;49.168;9.848;2022-12-18T13:59:58;97748.84;;;3.55;72.29
40502;BME280;29631;49.168;9.848;2022-12-18T14:02:37;97743.78;;;3.54;72.65
40502;BME280;29631;49.168;9.848;2022-12-18T14:05:04;97757.78;;;3.62;72.43
40502;BME280;29631;49.168;9.848;2022-12-18T14:07:30;97747.38;;;3.62;72.62
40502;BME280;29631;49.168;9.848;2022-12-18T14:09:59;97743.91;;;3.52;72.69
40502;BME280;29631;49.168;9.848;2022-12-18T14:12:36;97733.38;;;3.54;72.54
40502;BME280;29631;49.168;9.848;2022-12-18T14:18:09;97747.75;;;3.48;73.12
40502;BME280;29631;49.168;9.848;2022-12-18T14:20:44;97753.06;;;3.28;72.87
40502;BME280;29631;49.168;9.848;2022-12-18T14:23:38;97773.06;;;3.27;72.62
40502;BME280;29631;49.168;9.848;2022-12-18T14:26:26;97749.56;;;3.08;72.97
40502;BME280;29631;49.168;9.848;2022-12-18T14:28:58;97765.22;;;3.18;72.80
40502;BME280;29631;49.168;9.848;2022-12-18T14:31:29;97767.69;;;3.19;72.61
40502;BME280;29631;49.168;9.848;2022-12-18T14:33:56;97781.53;;;3.20;72.22
40502;BME280;29631;49.168;9.848;2022-12-18T14:36:28;97758.91;;;3.20;72.11
40502;BME280;29631;49.168;9.848;2022-12-18T14:38:57;97762.03;;;3.14;72.83
40502;BME280;29631;49.168;9.848;2022-12-18T14:41:24;97746.94;;;3.08;72.62
40502;BME280;29631;49.168;9.848;2022-12-18T14:43:53;97756.03;;;3.14;71.88
40502;BME280;29631;49.168;9.848;2022-12-18T14:46:36;97783.44;;;3.18;71.98
40502;BME280;29631;49.168;9.848;2022-12-18T14:51:53;97732.63;;;2.93;72.68
40502;BME280;29631;49.168;9.848;2022-12-18T14:54:21;97770.69;;;3.15;72.34
40502;BME280;29631;49.168;9.848;2022-12-18T14:56:52;97756.78;;;2.95;72.14
40502;BME280;29631;49.168;9.848;2022-12-18T14:59:25;97750.09;;;3.02;72.71
40502;BME280;29631;49.168;9.848;2022-12-18T15:02:24;97752.69;;;3.02;71.85
40502;BME280;29631;49.168;9.848;2022-12-18T15:07:52;97778.47;;;3.05;71.52
40502;BME280;29631;49.168;9.848;2022-12-18T15:10:28;97780.38;;;3.03;71.76
40502;BME280;29631;49.168;9.848;2022-12-18T15:18:11;97781.09;;;3.05;72.24
40502;BME280;29631;49.168;9.848;2022-12-18T15:23:30;97775.38;;;2.91;71.84
40502;BME280;29631;49.168;9.848;2022-12-18T15:26:07;97781.16;;;2.94;72.19
40502;BME280;29631;49.168;9.848;2022-12-18T15:28:54;97793.78;;;2.99;71.46
40502;BME280;29631;49.168;9.848;2022-12-18T15:31:31;97791.84;;;2.91;71.81
40502;BME280;29631;49.168;9.848;2022-12-18T15:36:27;97786.47;;;2.84;72.30
40502;BME280;29631;49.168;9.848;2022-12-18T15:38:55;97806.06;;;2.87;71.33